createdAt,value
2023-05-03T00:01:54.902Z,15.75
2023-05-03T00:04:23.130Z,14.38
2023-05-03T00:06:51.435Z,24.35
2023-05-03T00:09:18.535Z,19.48
2023-05-03T00:11:45.702Z,19.48
2023-05-03T00:14:12.809Z,18.45
2023-05-03T00:16:39.904Z,17.75
2023-05-03T00:19:12.606Z,22.17
2023-05-03T00:21:45.019Z,19.50
2023-05-03T00:24:12.109Z,19.45
2023-05-03T00:26:39.169Z,11.52
2023-05-03T00:29:06.242Z,17.02
2023-05-03T00:31:33.382Z,18.08
2023-05-03T00:34:00.497Z,20.40
2023-05-03T00:36:28.258Z,19.50
2023-05-03T00:38:55.351Z,13.10
2023-05-03T00:41:24.345Z,15.20
2023-05-03T00:43:51.383Z,19.10
2023-05-03T00:46:18.686Z,18.30
2023-05-03T00:48:46.625Z,15.15
2023-05-03T00:51:13.978Z,15.88
2023-05-03T00:53:41.477Z,16.52
2023-05-03T00:56:08.733Z,16.33
2023-05-03T00:58:39.940Z,48.35
2023-05-03T01:01:07.672Z,19.73
2023-05-03T01:03:36.191Z,22.88
2023-05-03T01:06:12.607Z,21.90
2023-05-03T01:08:43.669Z,15.88
2023-05-03T01:11:10.670Z,17.67
2023-05-03T01:13:42.799Z,21.52
2023-05-03T01:16:13.054Z,21.23
2023-05-03T01:18:41.782Z,43.97
2023-05-03T01:21:09.237Z,22.25
2023-05-03T01:23:55.166Z,17.60
2023-05-03T01:26:23.236Z,24.08
2023-05-03T01:28:50.715Z,18.92
2023-05-03T01:31:29.875Z,24.75
2023-05-03T01:34:17.280Z,25.80
2023-05-03T01:36:44.703Z,19.85
2023-05-03T01:39:13.693Z,18.08
2023-05-03T01:41:41.320Z,26.48
2023-05-03T01:44:08.392Z,19.00
2023-05-03T01:46:35.481Z,19.25
2023-05-03T01:49:02.534Z,21.27
2023-05-03T01:51:29.693Z,20.77
2023-05-03T01:53:56.766Z,23.27
2023-05-03T01:56:23.827Z,21.38
2023-05-03T01:58:50.969Z,22.58
2023-05-03T02:01:18.101Z,19.88
2023-05-03T02:03:45.322Z,23.02
2023-05-03T02:06:12.486Z,19.15
2023-05-03T02:08:39.565Z,23.15
2023-05-03T02:11:06.633Z,24.05
2023-05-03T02:13:33.676Z,19.98
2023-05-03T02:16:00.782Z,20.23
2023-05-03T02:18:31.268Z,23.77
2023-05-03T02:20:58.531Z,22.95
2023-05-03T02:23:25.589Z,26.38
2023-05-03T02:25:52.646Z,21.83
2023-05-03T02:28:19.885Z,24.60
2023-05-03T02:30:47.080Z,23.45
2023-05-03T02:33:14.272Z,21.27
2023-05-03T02:35:41.302Z,21.98
2023-05-03T02:38:08.388Z,21.88
2023-05-03T02:40:35.534Z,22.92
2023-05-03T02:43:03.775Z,24.30
2023-05-03T02:45:30.807Z,24.15
2023-05-03T02:47:59.068Z,25.48
2023-05-03T02:50:26.336Z,26.35
2023-05-03T02:52:53.556Z,21.13
2023-05-03T02:55:20.792Z,30.75
2023-05-03T02:57:47.844Z,24.10
2023-05-03T03:00:15.390Z,23.08
2023-05-03T03:02:42.744Z,24.60
2023-05-03T03:05:09.968Z,22.33
2023-05-03T03:07:39.009Z,22.48
2023-05-03T03:10:07.081Z,23.70
2023-05-03T03:12:34.575Z,22.52
2023-05-03T03:15:01.716Z,22.17
2023-05-03T03:17:28.847Z,18.42
2023-05-03T03:19:55.962Z,21.35
2023-05-03T03:22:23.026Z,16.55
2023-05-03T03:24:50.150Z,20.33
2023-05-03T03:27:17.178Z,16.80
2023-05-03T03:29:44.206Z,28.77
2023-05-03T03:32:11.414Z,24.67
2023-05-03T03:34:38.512Z,23.73
2023-05-03T03:37:05.608Z,24.75
2023-05-03T03:39:32.665Z,20.13
2023-05-03T03:42:00.485Z,24.13
2023-05-03T03:44:27.532Z,22.10
2023-05-03T03:46:54.659Z,23.42
2023-05-03T03:49:21.748Z,19.73
2023-05-03T03:51:48.775Z,23.25
2023-05-03T03:54:16.075Z,18.25
2023-05-03T03:56:43.576Z,22.30
2023-05-03T03:59:10.673Z,24.23
2023-05-03T04:01:37.766Z,22.52
2023-05-03T04:04:05.235Z,24.75
2023-05-03T04:06:33.462Z,28.25
2023-05-03T04:09:00.694Z,24.38
2023-05-03T04:11:27.784Z,25.10
2023-05-03T04:13:54.809Z,25.23
2023-05-03T04:16:22.061Z,22.17
2023-05-03T04:18:49.181Z,25.25
2023-05-03T04:21:16.344Z,29.58
2023-05-03T04:23:43.491Z,31.80
2023-05-03T04:26:23.587Z,29.90
2023-05-03T04:28:57.640Z,30.27
2023-05-03T04:31:25.079Z,49.20
2023-05-03T04:33:52.198Z,35.92
2023-05-03T04:36:19.262Z,31.60
2023-05-03T04:38:46.607Z,26.42
2023-05-03T04:41:15.517Z,26.98
2023-05-03T04:43:43.614Z,27.80
2023-05-03T04:46:10.829Z,27.58
2023-05-03T04:48:38.133Z,32.42
2023-05-03T04:51:05.657Z,30.77
2023-05-03T04:53:32.682Z,32.10
2023-05-03T04:55:59.990Z,27.77
2023-05-03T04:58:27.031Z,23.98
2023-05-03T05:00:54.260Z,24.90
2023-05-03T05:03:21.434Z,28.33
2023-05-03T05:05:48.645Z,29.90
2023-05-03T05:08:16.069Z,25.90
2023-05-03T05:10:43.259Z,27.33
2023-05-03T05:13:10.318Z,24.85
2023-05-03T05:15:37.391Z,26.15
2023-05-03T05:18:04.691Z,30.52
2023-05-03T05:20:31.803Z,39.47
2023-05-03T05:22:59.145Z,30.50
2023-05-03T05:25:26.211Z,24.77
2023-05-03T05:27:53.390Z,26.92
2023-05-03T05:30:20.600Z,27.17
2023-05-03T05:32:47.836Z,24.10
2023-05-03T05:35:17.592Z,20.15
2023-05-03T05:37:44.884Z,26.77
2023-05-03T05:40:12.434Z,19.45
2023-05-03T05:42:39.551Z,21.52
2023-05-03T05:45:08.180Z,19.50
2023-05-03T05:47:35.455Z,19.85
2023-05-03T05:50:09.626Z,21.85
2023-05-03T05:52:39.380Z,27.98
2023-05-03T05:55:07.715Z,19.35
2023-05-03T05:57:34.773Z,20.25
2023-05-03T06:00:02.188Z,26.40
2023-05-03T06:02:29.668Z,20.23
2023-05-03T06:04:56.942Z,27.67
2023-05-03T06:07:25.115Z,13.27
2023-05-03T06:09:52.287Z,16.30
2023-05-03T06:12:19.433Z,18.15
2023-05-03T06:15:01.093Z,16.83
2023-05-03T06:17:28.817Z,14.82
2023-05-03T06:19:55.863Z,13.32
2023-05-03T06:22:23.054Z,11.63
2023-05-03T06:24:50.626Z,16.08
2023-05-03T06:27:17.880Z,12.13
2023-05-03T06:29:45.048Z,11.25
2023-05-03T06:32:12.112Z,15.52
2023-05-03T06:34:39.244Z,10.55
2023-05-03T06:37:06.472Z,9.75
2023-05-03T06:39:33.578Z,14.90
2023-05-03T06:42:01.108Z,10.98
2023-05-03T06:44:28.274Z,10.43
2023-05-03T06:46:55.517Z,16.25
2023-05-03T06:49:22.938Z,14.00
2023-05-03T06:51:50.014Z,9.05
2023-05-03T06:54:17.237Z,10.70
2023-05-03T06:56:44.889Z,10.40
2023-05-03T06:59:11.935Z,12.88
2023-05-03T07:01:38.995Z,13.57
2023-05-03T07:04:06.213Z,9.38
2023-05-03T07:06:40.995Z,12.93
2023-05-03T07:09:28.686Z,13.30
2023-05-03T07:12:03.354Z,8.80
2023-05-03T07:14:31.472Z,8.63
2023-05-03T07:16:58.606Z,11.70
2023-05-03T07:19:25.744Z,13.57
2023-05-03T07:21:52.814Z,16.88
2023-05-03T07:24:20.363Z,12.75
2023-05-03T07:26:48.981Z,8.07
2023-05-03T07:29:16.200Z,7.82
2023-05-03T07:31:44.746Z,11.85
2023-05-03T07:34:11.906Z,11.35
2023-05-03T07:36:39.575Z,10.80
2023-05-03T07:39:07.335Z,10.65
2023-05-03T07:41:34.515Z,5.85
2023-05-03T07:44:01.617Z,6.63
2023-05-03T07:46:28.690Z,8.80
2023-05-03T07:48:55.667Z,5.13
2023-05-03T07:51:22.851Z,8.90
2023-05-03T07:53:49.847Z,10.85
2023-05-03T07:56:16.845Z,6.35
2023-05-03T07:58:46.743Z,7.82
2023-05-03T08:01:16.377Z,4.80
2023-05-03T08:03:44.183Z,4.85
2023-05-03T08:06:11.404Z,7.75
2023-05-03T08:08:38.544Z,6.97
2023-05-03T08:11:05.522Z,7.45
2023-05-03T08:13:32.502Z,6.32
2023-05-03T08:15:59.569Z,6.65
2023-05-03T08:18:27.506Z,7.30
2023-05-03T08:20:54.567Z,5.05
2023-05-03T08:23:21.824Z,6.70
2023-05-03T08:25:49.081Z,9.07
2023-05-03T08:28:16.464Z,8.60
2023-05-03T08:30:43.561Z,7.22
2023-05-03T08:33:10.951Z,9.95
2023-05-03T08:35:38.222Z,6.13
2023-05-03T08:38:05.318Z,9.48
2023-05-03T08:40:37.158Z,8.52
2023-05-03T08:43:08.471Z,7.05
2023-05-03T08:45:35.506Z,7.25
2023-05-03T08:48:04.411Z,6.80
2023-05-03T08:50:31.846Z,7.07
2023-05-03T08:52:59.909Z,7.72
2023-05-03T08:55:27.053Z,6.78
2023-05-03T08:57:54.100Z,6.28
2023-05-03T09:00:21.394Z,8.45
2023-05-03T09:02:50.158Z,5.90
2023-05-03T09:05:17.269Z,7.22
2023-05-03T09:08:05.957Z,8.77
2023-05-03T09:10:33.969Z,7.38
2023-05-03T09:13:01.645Z,8.68
2023-05-03T09:15:30.271Z,13.18
2023-05-03T09:18:10.754Z,8.45
2023-05-03T09:20:39.606Z,9.30
2023-05-03T09:23:09.893Z,7.93
2023-05-03T09:28:04.016Z,7.10
2023-05-03T09:30:31.198Z,10.32
2023-05-03T09:32:58.270Z,9.88
2023-05-03T09:35:25.365Z,7.90
2023-05-03T09:37:52.367Z,7.65
2023-05-03T09:40:19.534Z,7.10
2023-05-03T09:43:06.325Z,6.22
2023-05-03T09:45:34.303Z,7.18
2023-05-03T09:48:02.729Z,6.57
2023-05-03T09:50:29.935Z,5.35
2023-05-03T09:53:06.762Z,12.38
2023-05-03T09:55:34.516Z,6.97
2023-05-03T09:58:04.209Z,9.25
2023-05-03T10:00:31.600Z,5.20
2023-05-03T10:03:00.076Z,8.38
2023-05-03T10:05:27.435Z,6.10
2023-05-03T10:07:54.499Z,4.97
2023-05-03T10:10:21.619Z,8.05
2023-05-03T10:12:48.651Z,6.97
2023-05-03T10:15:18.373Z,4.95
2023-05-03T10:17:48.233Z,10.10
2023-05-03T10:20:17.595Z,7.00
2023-05-03T10:23:03.530Z,7.40
2023-05-03T10:25:30.754Z,9.75
2023-05-03T10:28:04.368Z,6.15
2023-05-03T10:30:32.718Z,5.80
2023-05-03T10:33:00.315Z,6.30
2023-05-03T10:35:29.465Z,10.70
2023-05-03T10:37:56.992Z,6.55
2023-05-03T10:40:24.141Z,9.38
2023-05-03T10:42:52.475Z,6.40
2023-05-03T10:45:25.862Z,6.50
2023-05-03T10:48:11.402Z,10.50
2023-05-03T10:50:38.917Z,9.23
2023-05-03T10:53:05.980Z,12.13
2023-05-03T10:55:33.156Z,6.22
2023-05-03T10:58:00.488Z,5.95
2023-05-03T11:00:33.863Z,4.57
2023-05-03T11:03:23.533Z,8.68
2023-05-03T11:05:51.615Z,9.88
2023-05-03T11:08:19.492Z,6.97
2023-05-03T11:10:46.734Z,5.50
2023-05-03T11:13:13.767Z,4.43
2023-05-03T11:15:40.950Z,7.40
2023-05-03T11:18:08.409Z,3.92
2023-05-03T11:20:38.584Z,4.28
2023-05-03T11:25:33.918Z,5.28
2023-05-03T11:28:04.256Z,9.60
2023-05-03T11:30:33.049Z,6.22
2023-05-03T11:33:00.284Z,12.65
2023-05-03T11:35:29.447Z,5.57
2023-05-03T11:37:56.752Z,15.75
2023-05-03T11:40:23.927Z,8.30
2023-05-03T11:42:52.345Z,7.75
2023-05-03T11:45:22.953Z,8.07
2023-05-03T11:47:50.995Z,7.97
2023-05-03T11:50:18.450Z,8.98
2023-05-03T11:52:45.654Z,7.22
2023-05-03T11:55:12.840Z,7.47
2023-05-03T11:57:39.923Z,6.22
2023-05-03T12:00:10.687Z,5.03
2023-05-03T12:02:37.841Z,4.20
2023-05-03T12:05:07.585Z,7.22
2023-05-03T12:07:35.706Z,7.25
2023-05-03T12:12:43.881Z,5.53
2023-05-03T12:15:16.359Z,5.45
2023-05-03T12:17:45.758Z,5.82
2023-05-03T12:22:58.604Z,5.82
2023-05-03T12:25:28.226Z,7.53
2023-05-03T12:28:17.659Z,4.35
2023-05-03T12:30:46.778Z,5.55
2023-05-03T12:33:15.963Z,4.65
2023-05-03T12:35:46.876Z,6.70
2023-05-03T12:38:16.749Z,5.10
2023-05-03T12:40:45.448Z,8.67
2023-05-03T12:43:12.895Z,6.85
2023-05-03T12:45:41.191Z,4.28
2023-05-03T12:48:09.173Z,4.70
2023-05-03T12:50:38.647Z,6.45
2023-05-03T12:55:41.878Z,3.85
2023-05-03T13:01:02.637Z,5.32
2023-05-03T13:03:33.361Z,4.72
2023-05-03T13:06:03.056Z,8.25
2023-05-03T13:08:37.020Z,5.05
2023-05-03T13:11:04.471Z,4.85
2023-05-03T13:13:33.117Z,5.53
2023-05-03T13:16:00.309Z,3.80
2023-05-03T13:18:27.711Z,6.70
2023-05-03T13:20:54.726Z,3.15
2023-05-03T13:23:21.744Z,3.97
2023-05-03T13:25:48.757Z,4.35
2023-05-03T13:28:20.363Z,6.60
2023-05-03T13:30:47.782Z,6.07
2023-05-03T13:33:14.846Z,4.05
2023-05-03T13:35:41.898Z,5.18
2023-05-03T13:38:09.264Z,5.57
2023-05-03T13:40:36.262Z,4.30
2023-05-03T13:43:03.239Z,6.90
2023-05-03T13:45:30.261Z,5.68
2023-05-03T13:48:06.625Z,7.13
2023-05-03T13:50:36.728Z,4.38
2023-05-03T13:53:03.779Z,2.58
2023-05-03T13:55:31.513Z,5.45
2023-05-03T13:57:58.513Z,4.13
2023-05-03T14:00:25.551Z,5.68
2023-05-03T14:02:53.166Z,7.05
2023-05-03T14:05:20.836Z,6.55
2023-05-03T14:07:47.972Z,4.93
2023-05-03T14:10:15.041Z,3.00
2023-05-03T14:12:42.282Z,4.18
2023-05-03T14:15:09.579Z,8.93
2023-05-03T14:17:36.675Z,4.57
2023-05-03T14:20:07.572Z,4.32
2023-05-03T14:22:34.920Z,6.72
2023-05-03T14:25:02.473Z,2.95
2023-05-03T14:27:30.541Z,6.47
2023-05-03T14:29:57.648Z,5.30
2023-05-03T14:32:25.064Z,5.20
2023-05-03T14:34:52.093Z,3.70
2023-05-03T14:37:19.082Z,7.80
2023-05-03T14:39:46.262Z,3.78
2023-05-03T14:42:13.261Z,2.75
2023-05-03T14:44:40.308Z,3.78
2023-05-03T14:47:07.762Z,4.50
2023-05-03T14:49:40.371Z,3.65
2023-05-03T14:52:07.788Z,3.30
2023-05-03T14:54:35.366Z,3.22
2023-05-03T14:57:02.580Z,6.20
2023-05-03T14:59:29.566Z,5.93
2023-05-03T15:01:56.733Z,4.45
2023-05-03T15:04:23.962Z,9.13
2023-05-03T15:06:51.152Z,6.45
2023-05-03T15:09:18.266Z,9.40
2023-05-03T15:11:48.557Z,6.10
2023-05-03T15:14:17.342Z,4.50
2023-05-03T15:16:44.575Z,8.35
2023-05-03T15:19:11.757Z,5.53
2023-05-03T15:21:48.253Z,2.80
2023-05-03T15:24:15.529Z,4.80
2023-05-03T15:26:42.574Z,5.38
2023-05-03T15:29:09.753Z,12.75
2023-05-03T15:31:37.964Z,11.15
2023-05-03T15:34:05.671Z,2.83
2023-05-03T15:36:32.866Z,4.07
2023-05-03T15:39:00.000Z,3.95
2023-05-03T15:41:27.151Z,12.18
2023-05-03T15:43:54.223Z,6.90
2023-05-03T15:46:21.389Z,9.60
2023-05-03T15:48:48.409Z,9.13
2023-05-03T15:51:15.486Z,9.38
2023-05-03T15:53:43.558Z,8.65
2023-05-03T15:56:11.719Z,11.40
2023-05-03T15:58:38.827Z,4.80
2023-05-03T16:01:05.864Z,5.95
2023-05-03T16:03:32.942Z,6.72
2023-05-03T16:05:59.923Z,4.97
2023-05-03T16:08:27.107Z,5.90
2023-05-03T16:10:54.081Z,3.15
2023-05-03T16:13:21.149Z,3.67
2023-05-03T16:15:52.107Z,11.30
2023-05-03T16:18:19.476Z,13.95
2023-05-03T16:20:46.503Z,8.43
2023-05-03T16:23:13.535Z,6.20
2023-05-03T16:25:40.602Z,8.30
2023-05-03T16:28:07.894Z,6.63
2023-05-03T16:30:34.950Z,5.13
2023-05-03T16:33:04.815Z,5.93
2023-05-03T16:35:32.024Z,6.43
2023-05-03T16:37:59.073Z,2.67
2023-05-03T16:40:26.164Z,5.57
2023-05-03T16:42:53.257Z,3.78
2023-05-03T16:45:20.358Z,2.45
2023-05-03T16:47:47.757Z,5.60
2023-05-03T16:50:14.776Z,7.47
2023-05-03T16:52:42.818Z,6.28
2023-05-03T16:55:10.729Z,4.18
2023-05-03T16:57:38.005Z,5.55
2023-05-03T17:00:09.124Z,4.70
2023-05-03T17:02:37.052Z,5.63
2023-05-03T17:05:05.095Z,4.78
2023-05-03T17:07:33.004Z,5.20
2023-05-03T17:10:00.565Z,3.10
2023-05-03T17:12:27.814Z,5.22
2023-05-03T17:14:54.907Z,6.97
2023-05-03T17:17:22.277Z,6.57
2023-05-03T17:19:49.559Z,2.95
2023-05-03T17:22:16.745Z,4.20
2023-05-03T17:24:43.803Z,5.55
2023-05-03T17:27:11.067Z,5.25
2023-05-03T17:29:38.195Z,5.13
2023-05-03T17:32:05.613Z,3.45
2023-05-03T17:34:33.819Z,2.45
2023-05-03T17:37:00.858Z,6.20
2023-05-03T17:39:28.423Z,5.53
2023-05-03T17:41:55.585Z,4.80
2023-05-03T17:44:22.847Z,4.85
2023-05-03T17:46:50.226Z,7.18
2023-05-03T17:49:17.349Z,3.00
2023-05-03T17:51:44.405Z,4.97
2023-05-03T17:54:11.589Z,6.03
2023-05-03T17:56:38.573Z,7.03
2023-05-03T17:59:05.620Z,7.63
2023-05-03T18:01:32.605Z,3.72
2023-05-03T18:03:59.780Z,5.90
2023-05-03T18:06:27.966Z,3.22
2023-05-03T18:08:55.031Z,8.23
2023-05-03T18:11:22.870Z,9.57
2023-05-03T18:13:49.924Z,6.70
2023-05-03T18:16:17.084Z,7.93
2023-05-03T18:18:44.358Z,4.80
2023-05-03T18:21:12.327Z,4.78
2023-05-03T18:23:39.424Z,3.05
2023-05-03T18:26:07.923Z,3.30
2023-05-03T18:28:35.095Z,3.95
2023-05-03T18:31:03.709Z,4.55
2023-05-03T18:33:30.836Z,8.20
2023-05-03T18:35:58.863Z,4.35
2023-05-03T18:38:26.104Z,7.85
2023-05-03T18:40:54.689Z,7.35
2023-05-03T18:43:21.710Z,13.20
2023-05-03T18:45:48.752Z,9.30
2023-05-03T18:48:15.894Z,14.23
2023-05-03T18:50:43.999Z,28.80
2023-05-03T18:53:11.123Z,12.18
2023-05-03T18:55:38.148Z,5.45
2023-05-03T18:58:05.514Z,6.18
2023-05-03T19:00:32.717Z,8.00
2023-05-03T19:02:59.854Z,7.70
2023-05-03T19:05:26.862Z,5.32
2023-05-03T19:07:53.979Z,7.90
2023-05-03T19:10:21.151Z,7.88
2023-05-03T19:12:48.251Z,2.70
2023-05-03T19:15:15.319Z,5.35
2023-05-03T19:17:42.566Z,4.57
2023-05-03T19:20:10.317Z,6.35
2023-05-03T19:22:40.685Z,5.95
2023-05-03T19:25:08.230Z,7.47
2023-05-03T19:27:35.262Z,12.57
2023-05-03T19:30:02.488Z,4.65
2023-05-03T19:32:29.941Z,3.40
2023-05-03T19:34:57.128Z,7.30
2023-05-03T19:37:27.250Z,8.02
2023-05-03T19:39:54.458Z,4.68
2023-05-03T19:42:21.490Z,5.90
2023-05-03T19:44:48.492Z,7.18
2023-05-03T19:47:15.510Z,4.40
2023-05-03T19:49:42.598Z,9.13
2023-05-03T19:52:09.715Z,9.00
2023-05-03T19:54:36.718Z,4.90
2023-05-03T19:57:07.411Z,6.82
2023-05-03T19:59:34.879Z,9.52
2023-05-03T20:02:02.180Z,3.45
2023-05-03T20:04:29.397Z,5.72
2023-05-03T20:06:57.178Z,6.15
2023-05-03T20:09:24.303Z,7.88
2023-05-03T20:11:51.888Z,3.50
2023-05-03T20:14:19.005Z,4.85
2023-05-03T20:16:46.082Z,3.10
2023-05-03T20:19:13.239Z,6.00
2023-05-03T20:21:40.430Z,4.30
2023-05-03T20:24:10.673Z,5.65
2023-05-03T20:26:38.526Z,7.18
2023-05-03T20:29:05.593Z,5.55
2023-05-03T20:31:33.012Z,4.35
2023-05-03T20:34:00.406Z,3.55
2023-05-03T20:36:27.920Z,7.63
2023-05-03T20:38:54.969Z,4.70
2023-05-03T20:41:22.776Z,6.63
2023-05-03T20:43:50.714Z,5.78
2023-05-03T20:46:18.378Z,5.57
2023-05-03T20:48:45.601Z,6.95
2023-05-03T20:51:12.962Z,4.82
2023-05-03T20:53:40.030Z,7.70
2023-05-03T20:56:07.813Z,7.68
2023-05-03T20:58:34.879Z,9.60
2023-05-03T21:01:04.231Z,4.85
2023-05-03T21:03:31.815Z,9.38
2023-05-03T21:05:59.071Z,4.63
2023-05-03T21:08:26.221Z,4.20
2023-05-03T21:10:53.616Z,5.65
2023-05-03T21:13:20.767Z,5.93
2023-05-03T21:15:47.886Z,7.63
2023-05-03T21:18:15.734Z,7.05
2023-05-03T21:20:42.781Z,5.68
2023-05-03T21:23:09.870Z,5.45
2023-05-03T21:25:37.003Z,9.25
2023-05-03T21:28:04.177Z,5.55
2023-05-03T21:30:31.667Z,7.15
2023-05-03T21:32:58.751Z,4.68
2023-05-03T21:35:25.898Z,10.55
2023-05-03T21:37:52.972Z,7.95
2023-05-03T21:40:21.206Z,5.50
2023-05-03T21:42:49.468Z,4.47
2023-05-03T21:45:16.786Z,8.65
2023-05-03T21:47:43.914Z,9.07
2023-05-03T21:50:11.373Z,3.42
2023-05-03T21:52:38.546Z,5.20
2023-05-03T21:55:05.797Z,7.00
2023-05-03T21:57:33.289Z,7.85
2023-05-03T22:00:00.317Z,8.60
2023-05-03T22:02:27.424Z,6.63
2023-05-03T22:04:54.626Z,9.77
2023-05-03T22:07:21.626Z,4.95
2023-05-03T22:09:48.859Z,8.00
2023-05-03T22:14:46.078Z,4.45
2023-05-03T22:17:13.489Z,8.32
2023-05-03T22:19:40.499Z,6.38
2023-05-03T22:22:07.515Z,6.45
2023-05-03T22:24:34.488Z,4.10
2023-05-03T22:27:01.570Z,10.57
2023-05-03T22:29:28.615Z,7.15
2023-05-03T22:31:56.354Z,5.65
2023-05-03T22:34:23.491Z,8.00
2023-05-03T22:36:50.694Z,7.97
2023-05-03T22:39:17.777Z,4.65
2023-05-03T22:41:45.224Z,6.15
2023-05-03T22:44:12.387Z,10.18
2023-05-03T22:46:39.444Z,7.60
2023-05-03T22:49:07.360Z,8.25
2023-05-03T22:51:34.409Z,7.03
2023-05-03T22:54:01.548Z,6.40
2023-05-03T22:56:28.604Z,9.27
2023-05-03T22:58:55.623Z,8.65
2023-05-03T23:01:22.713Z,14.63
2023-05-03T23:03:49.783Z,11.68
2023-05-03T23:06:16.897Z,8.93
2023-05-03T23:08:44.002Z,5.22
2023-05-03T23:11:11.128Z,5.55
2023-05-03T23:13:38.371Z,6.53
2023-05-03T23:16:05.625Z,10.10
2023-05-03T23:18:32.700Z,4.63
2023-05-03T23:20:59.842Z,3.92
2023-05-03T23:23:26.827Z,6.78
2023-05-03T23:25:53.848Z,5.35
2023-05-03T23:28:21.235Z,7.85
2023-05-03T23:30:48.866Z,8.52
2023-05-03T23:33:16.425Z,6.07
2023-05-03T23:35:43.887Z,6.85
2023-05-03T23:38:10.971Z,9.63
2023-05-03T23:40:38.039Z,4.28
2023-05-03T23:43:04.997Z,8.27
2023-05-03T23:45:32.034Z,6.22
2023-05-03T23:47:59.077Z,8.23
2023-05-03T23:50:26.351Z,7.30
2023-05-03T23:52:53.350Z,5.70
2023-05-03T23:55:20.426Z,8.27
2023-05-03T23:57:47.410Z,5.72
